Time;durP1;ratioP1;P1;durP2;ratioP2;P2;SDS_P1;SDS_P2;PMS_P1;PMS_P2;Temp;Humidity;BMP_temperature;BMP_pressure;BME280_temperature;BME280_humidity;BME280_pressure;Samples;Min_cycle;Max_cycle;Signal;HPM_P1;HPM_P2
2023/10/13 00:01:48;;;;;;;16.70;10.00;;;19.30;99.90;;;;;;5074148;28;20464;-58
2023/10/13 00:04:15;;;;;;;16.13;8.90;;;19.30;99.90;;;;;;5073956;28;20487;-58
2023/10/13 00:06:43;;;;;;;11.60;8.57;;;19.30;99.90;;;;;;5074004;28;20448;-58
2023/10/13 00:09:14;;;;;;;11.20;8.70;;;19.30;99.90;;;;;;5073802;28;20453;-58
2023/10/13 00:11:44;;;;;;;14.43;9.10;;;19.30;99.90;;;;;;5073910;28;20514;-57
2023/10/13 00:14:14;;;;;;;12.07;8.83;;;19.30;99.90;;;;;;5073973;28;20464;-58
2023/10/13 00:17:00;;;;;;;10.27;9.27;;;19.30;99.90;;;;;;5074029;28;20426;-57
2023/10/13 00:19:28;;;;;;;12.17;9.20;;;19.30;99.90;;;;;;5073717;28;20429;-57
2023/10/13 00:21:56;;;;;;;15.57;8.53;;;19.30;99.90;;;;;;5073530;28;20445;-57
2023/10/13 00:24:26;;;;;;;12.23;9.43;;;19.30;99.90;;;;;;5073572;28;20520;-57
2023/10/13 00:26:57;;;;;;;13.63;8.30;;;19.30;99.90;;;;;;5073725;28;20425;-57
2023/10/13 00:29:30;;;;;;;12.17;8.63;;;19.30;99.90;;;;;;5073641;28;20502;-57
2023/10/13 00:31:57;;;;;;;16.20;8.90;;;19.30;99.90;;;;;;5073630;28;20428;-57
2023/10/13 00:34:27;;;;;;;12.70;9.30;;;19.30;99.90;;;;;;5073324;28;20854;-58
2023/10/13 00:39:36;;;;;;;10.60;8.80;;;19.40;99.90;;;;;;5073203;28;20952;-57
2023/10/13 00:42:07;;;;;;;15.33;9.07;;;19.40;99.90;;;;;;5073464;28;20441;-57
2023/10/13 00:44:38;;;;;;;14.57;8.70;;;19.30;99.90;;;;;;5073068;28;20560;-57
2023/10/13 00:47:07;;;;;;;11.27;8.47;;;19.30;99.90;;;;;;5073418;28;20425;-57
2023/10/13 00:49:39;;;;;;;10.70;7.67;;;19.30;99.90;;;;;;5073327;28;20449;-57
2023/10/13 00:52:05;;;;;;;10.93;9.37;;;19.30;99.90;;;;;;5073420;28;20433;-58
2023/10/13 00:54:35;;;;;;;12.70;9.80;;;19.40;99.90;;;;;;5073304;28;20451;-58
2023/10/13 00:57:04;;;;;;;10.40;8.23;;;19.30;99.90;;;;;;5073290;28;20455;-58
2023/10/13 00:59:33;;;;;;;15.20;9.03;;;19.40;99.90;;;;;;5073173;28;20440;-57
2023/10/13 01:02:08;;;;;;;12.20;9.23;;;19.40;99.90;;;;;;5073264;28;20531;-57
2023/10/13 01:04:38;;;;;;;10.40;7.80;;;19.40;99.90;;;;;;5073660;28;21035;-57
2023/10/13 01:07:04;;;;;;;10.60;7.90;;;19.40;99.90;;;;;;5077384;28;20444;-57
2023/10/13 01:09:42;;;;;;;10.30;8.40;;;19.40;99.90;;;;;;5076898;28;20470;-57
2023/10/13 01:12:08;;;;;;;9.60;8.60;;;19.40;99.90;;;;;;5077420;28;20428;-57
2023/10/13 01:14:35;;;;;;;13.67;9.70;;;19.40;99.90;;;;;;5077227;28;20437;-57
2023/10/13 01:17:02;;;;;;;12.83;9.67;;;19.40;99.90;;;;;;5077287;28;20455;-57
2023/10/13 01:19:29;;;;;;;9.60;8.60;;;19.40;99.90;;;;;;5076814;28;20451;-57
2023/10/13 01:22:02;;;;;;;11.53;9.70;;;19.40;99.90;;;;;;5077154;28;20843;-57
2023/10/13 01:24:31;;;;;;;11.23;8.90;;;19.40;99.90;;;;;;5077026;28;20472;-57
2023/10/13 01:26:56;;;;;;;11.33;8.90;;;19.40;99.90;;;;;;5077005;28;20527;-57
2023/10/13 01:29:28;;;;;;;11.97;9.10;;;19.40;99.90;;;;;;5076903;28;20855;-57
2023/10/13 01:31:54;;;;;;;12.87;9.40;;;19.40;99.90;;;;;;5077065;28;20182;-56
2023/10/13 01:34:22;;;;;;;13.37;9.30;;;19.40;99.90;;;;;;5076868;28;21060;-56
2023/10/13 01:36:50;;;;;;;13.60;8.60;;;19.40;99.90;;;;;;5076553;28;20672;-56
2023/10/13 01:39:17;;;;;;;11.47;8.60;;;19.40;99.90;;;;;;5076710;28;20451;-57
2023/10/13 01:41:44;;;;;;;12.27;8.47;;;19.40;99.90;;;;;;5076696;28;20464;-57
2023/10/13 01:44:12;;;;;;;15.70;9.40;;;19.40;99.90;;;;;;5076566;28;20486;-57
2023/10/13 01:46:38;;;;;;;9.57;8.47;;;19.40;99.90;;;;;;5076596;28;20444;-57
2023/10/13 01:49:05;;;;;;;12.67;9.03;;;19.40;99.90;;;;;;5076523;28;20498;-57
2023/10/13 01:51:30;;;;;;;16.63;8.87;;;19.40;99.90;;;;;;5076145;28;20222;-57
2023/10/13 01:53:57;;;;;;;9.67;8.73;;;19.40;99.90;;;;;;5076395;28;20444;-57
2023/10/13 01:56:23;;;;;;;13.77;9.73;;;19.40;99.90;;;;;;5076387;28;20206;-57
2023/10/13 01:58:53;;;;;;;11.20;8.40;;;19.40;99.90;;;;;;5076345;28;20448;-57
2023/10/13 02:01:26;;;;;;;12.67;9.03;;;19.40;99.90;;;;;;5076323;28;20321;-57
2023/10/13 02:04:01;;;;;;;13.03;9.30;;;19.40;99.90;;;;;;5075955;28;20886;-57
2023/10/13 02:06:32;;;;;;;10.17;9.07;;;19.40;99.90;;;;;;5076287;28;20439;-57
2023/10/13 02:09:05;;;;;;;12.90;7.90;;;19.40;99.90;;;;;;5076055;28;20836;-57
2023/10/13 02:11:31;;;;;;;13.40;9.73;;;19.40;99.90;;;;;;5076170;28;20464;-57
2023/10/13 02:14:00;;;;;;;14.50;8.97;;;19.30;99.90;;;;;;5076096;28;20440;-56
2023/10/13 02:16:26;;;;;;;15.70;9.23;;;19.30;99.90;;;;;;5075425;28;20667;-55
2023/10/13 02:18:52;;;;;;;14.07;9.83;;;19.30;99.90;;;;;;5076047;28;20539;-55
2023/10/13 02:21:18;;;;;;;12.60;10.63;;;19.30;99.90;;;;;;5075616;28;20989;-55
2023/10/13 02:23:45;;;;;;;11.13;9.43;;;19.30;99.90;;;;;;5075988;28;20447;-56
2023/10/13 02:26:12;;;;;;;14.00;10.83;;;19.40;99.90;;;;;;5075675;28;20741;-56
2023/10/13 02:28:39;;;;;;;14.80;11.00;;;19.30;99.90;;;;;;5075621;28;20825;-57
2023/10/13 02:31:06;;;;;;;14.90;10.90;;;19.30;99.90;;;;;;5075861;28;20522;-57
2023/10/13 02:33:34;;;;;;;12.67;9.70;;;19.30;99.90;;;;;;5075739;28;20453;-57
2023/10/13 02:36:04;;;;;;;10.73;9.67;;;19.30;99.90;;;;;;5075723;28;20509;-57
2023/10/13 02:38:34;;;;;;;15.93;10.37;;;19.40;99.90;;;;;;5075423;28;20911;-57
2023/10/13 02:41:05;;;;;;;15.90;12.00;;;19.40;99.90;;;;;;5075838;28;20511;-57
2023/10/13 02:43:34;;;;;;;13.80;10.40;;;19.40;99.90;;;;;;5075616;28;20520;-57
2023/10/13 02:46:01;;;;;;;12.00;10.20;;;19.40;99.90;;;;;;5075581;28;20436;-57
2023/10/13 02:48:39;;;;;;;16.33;10.97;;;19.40;99.90;;;;;;5075485;28;20496;-57
2023/10/13 02:51:07;;;;;;;14.53;11.43;;;19.40;99.90;;;;;;5075446;28;20465;-57
2023/10/13 02:53:36;;;;;;;17.20;10.10;;;19.40;99.90;;;;;;5075451;28;20448;-57
2023/10/13 02:56:04;;;;;;;14.53;11.50;;;19.40;99.90;;;;;;5075389;28;20452;-57
2023/10/13 02:58:38;;;;;;;14.33;11.17;;;19.40;99.90;;;;;;5075380;28;20449;-57
2023/10/13 03:01:16;;;;;;;18.50;10.70;;;19.40;99.90;;;;;;5075328;28;20488;-57
2023/10/13 03:03:47;;;;;;;11.50;9.80;;;19.40;99.90;;;;;;5075412;28;20902;-57
2023/10/13 03:06:14;;;;;;;10.53;9.37;;;19.40;99.90;;;;;;5075733;28;20431;-57
2023/10/13 03:08:42;;;;;;;12.30;10.60;;;19.40;99.90;;;;;;5075545;28;20464;-57
2023/10/13 03:11:09;;;;;;;14.00;9.80;;;19.40;99.90;;;;;;5075607;28;20464;-57
2023/10/13 03:13:36;;;;;;;13.37;9.93;;;19.40;99.90;;;;;;5075313;28;20886;-57
2023/10/13 03:16:11;;;;;;;16.67;8.90;;;19.40;99.90;;;;;;5074939;28;20816;-57
2023/10/13 03:18:38;;;;;;;11.80;8.83;;;19.40;99.90;;;;;;5075088;28;20434;-57
2023/10/13 03:21:07;;;;;;;14.00;11.10;;;19.40;99.90;;;;;;5074933;28;20456;-57
2023/10/13 03:23:45;;;;;;;14.00;9.17;;;19.40;99.90;;;;;;5074894;28;20445;-57
2023/10/13 03:26:12;;;;;;;12.60;9.50;;;19.40;99.90;;;;;;5074847;28;20417;-57
2023/10/13 03:28:38;;;;;;;11.40;8.97;;;19.40;99.90;;;;;;5073575;28;20455;-57
2023/10/13 03:31:07;;;;;;;14.57;9.80;;;19.40;99.90;;;;;;5074614;28;20495;-57
2023/10/13 03:33:34;;;;;;;12.03;8.80;;;19.30;99.90;;;;;;5074389;28;20472;-57
2023/10/13 03:36:05;;;;;;;13.47;9.30;;;19.40;99.90;;;;;;5074551;28;20451;-57
2023/10/13 03:38:36;;;;;;;12.60;9.10;;;19.40;99.90;;;;;;5074541;28;20425;-57
2023/10/13 03:41:12;;;;;;;11.83;8.80;;;19.40;99.90;;;;;;5074397;28;20469;-57
2023/10/13 03:43:45;;;;;;;12.87;9.33;;;19.40;99.90;;;;;;5074186;28;21035;-57
2023/10/13 03:46:12;;;;;;;12.40;9.07;;;19.20;99.90;;;;;;5074374;28;20511;-57
2023/10/13 03:48:51;;;;;;;12.67;8.87;;;19.30;99.90;;;;;;5074004;28;20868;-57
2023/10/13 03:51:19;;;;;;;12.20;9.80;;;19.20;99.90;;;;;;5073999;28;20842;-57
2023/10/13 03:53:53;;;;;;;13.40;8.20;;;19.30;99.90;;;;;;5074197;28;20498;-57
2023/10/13 03:56:27;;;;;;;10.87;7.90;;;19.30;99.90;;;;;;5074295;28;20429;-57
2023/10/13 03:58:57;;;;;;;9.77;8.33;;;19.30;99.90;;;;;;5074136;28;20524;-57
2023/10/13 04:01:31;;;;;;;9.80;7.77;;;19.30;99.90;;;;;;5073999;28;20468;-57
2023/10/13 04:04:03;;;;;;;11.37;7.80;;;19.40;99.90;;;;;;5074086;28;20524;-57
2023/10/13 04:15:15;;;;;;;13.00;7.97;;;19.40;99.90;;;;;;5073722;28;20408;-57
2023/10/13 04:17:45;;;;;;;10.20;7.80;;;19.50;99.90;;;;;;5073538;28;20957;-56
2023/10/13 04:20:27;;;;;;;11.50;7.67;;;19.50;99.90;;;;;;5073406;28;20522;-55
2023/10/13 04:26:09;;;;;;;10.50;8.03;;;19.40;99.90;;;;;;5070217;28;20529;-57
2023/10/13 04:28:37;;;;;;;11.47;8.40;;;19.40;99.90;;;;;;5073604;28;20544;-57
2023/10/13 04:31:14;;;;;;;10.10;7.17;;;19.50;99.90;;;;;;5073572;28;20464;-57
2023/10/13 04:33:52;;;;;;;11.53;7.10;;;19.50;99.90;;;;;;5073658;28;20432;-57
2023/10/13 04:36:36;;;;;;;10.03;7.10;;;19.50;99.90;;;;;;5073255;28;20844;-57
2023/10/13 04:39:09;;;;;;;13.67;7.20;;;19.50;99.90;;;;;;5073434;28;20436;-57
2023/10/13 04:41:39;;;;;;;10.13;7.00;;;19.60;99.90;;;;;;5073448;28;20851;-56
2023/10/13 04:44:38;;;;;;;10.53;7.13;;;19.50;99.90;;;;;;5073343;28;20440;-56
2023/10/13 04:47:07;;;;;;;10.50;7.10;;;19.50;99.90;;;;;;5073080;28;20443;-56
2023/10/13 04:49:35;;;;;;;9.63;7.83;;;19.50;99.90;;;;;;5073372;28;20513;-57
2023/10/13 04:52:12;;;;;;;16.10;7.57;;;19.60;99.90;;;;;;5073337;28;20447;-56
2023/10/13 04:54:45;;;;;;;9.40;7.33;;;19.50;99.90;;;;;;5073407;28;20486;-56
2023/10/13 04:57:31;;;;;;;8.80;6.90;;;19.60;99.90;;;;;;5073043;28;20930;-57
2023/10/13 05:06:04;;;;;;;9.30;6.70;;;19.50;99.90;;;;;;5073033;28;20468;-57
2023/10/13 05:49:52;;;;;;;11.23;6.07;;;19.40;99.90;;;;;;5072778;28;20484;-56
2023/10/13 06:30:58;;;;;;;10.27;6.70;;;19.70;99.90;;;;;;5075973;28;20439;-57
2023/10/13 06:33:28;;;;;;;13.50;6.13;;;19.60;99.90;;;;;;5075592;28;20960;-57
2023/10/13 06:35:58;;;;;;;11.50;6.20;;;19.60;99.90;;;;;;5075730;28;20452;-57
2023/10/13 06:38:27;;;;;;;9.73;6.17;;;19.60;99.90;;;;;;5075768;28;20454;-57
2023/10/13 06:40:53;;;;;;;9.77;6.37;;;19.60;99.90;;;;;;5075313;28;20473;-57
2023/10/13 06:43:21;;;;;;;13.23;7.00;;;19.70;99.90;;;;;;5075660;28;20449;-58
2023/10/13 06:45:56;;;;;;;10.13;5.87;;;19.70;99.90;;;;;;5075577;28;20480;-57
2023/10/13 06:48:25;;;;;;;15.00;7.03;;;19.70;99.90;;;;;;5075528;28;20434;-57
2023/10/13 06:50:52;;;;;;;15.20;6.80;;;19.70;99.90;;;;;;5075451;28;20548;-57
2023/10/13 06:53:20;;;;;;;12.00;6.57;;;19.70;99.90;;;;;;5075529;28;20876;-57
2023/10/13 06:55:49;;;;;;;15.17;6.20;;;19.70;99.90;;;;;;5075442;28;20433;-57
2023/10/13 06:58:17;;;;;;;12.67;6.50;;;19.80;99.90;;;;;;5074971;28;20829;-57
2023/10/13 07:00:52;;;;;;;8.40;5.97;;;19.80;99.90;;;;;;5075213;28;20519;-57
2023/10/13 07:03:19;;;;;;;14.07;6.53;;;19.70;99.90;;;;;;5073997;28;20429;-57
2023/10/13 07:05:47;;;;;;;17.87;7.40;;;19.70;99.90;;;;;;5075169;28;20484;-57
2023/10/13 07:08:19;;;;;;;15.20;6.77;;;19.70;99.90;;;;;;5074806;28;20957;-57
2023/10/13 07:11:02;;;;;;;10.00;6.33;;;19.70;99.90;;;;;;5074995;28;20461;-57
2023/10/13 07:13:29;;;;;;;15.70;7.33;;;19.70;99.90;;;;;;5075136;28;20425;-57
2023/10/13 07:16:00;;;;;;;10.93;6.40;;;19.70;99.90;;;;;;5074986;28;20490;-57
2023/10/13 07:18:35;;;;;;;12.20;6.77;;;19.70;99.90;;;;;;5075092;28;20421;-57
2023/10/13 07:21:09;;;;;;;13.80;5.73;;;19.70;99.90;;;;;;5074672;28;21004;-57
2023/10/13 07:23:37;;;;;;;10.37;5.93;;;19.70;99.90;;;;;;5074853;28;20483;-57
2023/10/13 07:26:08;;;;;;;13.00;6.77;;;19.70;99.90;;;;;;5074748;28;20480;-57
2023/10/13 07:28:36;;;;;;;14.93;5.67;;;19.70;99.90;;;;;;5074776;28;20433;-57
2023/10/13 07:31:12;;;;;;;14.90;6.80;;;19.80;99.90;;;;;;5074393;28;20503;-57
2023/10/13 07:33:41;;;;;;;9.37;5.60;;;19.80;99.90;;;;;;5074403;28;20429;-57
2023/10/13 07:36:15;;;;;;;7.17;5.30;;;19.90;99.90;;;;;;5074641;28;20436;-57
2023/10/13 07:38:43;;;;;;;11.43;5.80;;;20.00;99.90;;;;;;5074560;28;20482;-57
2023/10/13 07:41:15;;;;;;;14.63;7.37;;;20.10;99.90;;;;;;5074565;28;20504;-57
2023/10/13 07:43:42;;;;;;;9.20;5.90;;;20.20;99.90;;;;;;5074475;28;20433;-57
2023/10/13 07:46:10;;;;;;;15.00;6.40;;;20.30;99.90;;;;;;5074302;28;20485;-57
2023/10/13 07:48:37;;;;;;;12.80;6.17;;;20.30;99.90;;;;;;5074354;28;20445;-57
2023/10/13 07:51:09;;;;;;;11.00;6.73;;;20.30;99.90;;;;;;5074356;28;20468;-57
2023/10/13 07:53:39;;;;;;;13.73;6.50;;;20.30;99.90;;;;;;5074335;28;20486;-58
2023/10/13 07:56:08;;;;;;;11.53;5.83;;;20.30;99.90;;;;;;5074202;28;20448;-58
2023/10/13 07:58:47;;;;;;;10.63;5.67;;;20.30;99.90;;;;;;5074162;28;20482;-58
2023/10/13 08:01:18;;;;;;;12.20;6.10;;;20.40;99.90;;;;;;5074138;28;20461;-58
2023/10/13 08:03:45;;;;;;;11.50;5.30;;;20.40;99.90;;;;;;5073844;28;20845;-57
2023/10/13 08:06:28;;;;;;;7.57;5.23;;;20.50;99.90;;;;;;5073976;28;20481;-58
2023/10/13 08:08:59;;;;;;;15.70;5.70;;;20.60;99.90;;;;;;5073536;28;20509;-57
2023/10/13 08:11:27;;;;;;;13.73;6.23;;;20.60;99.90;;;;;;5074018;28;20460;-58
2023/10/13 08:13:58;;;;;;;14.30;5.80;;;20.60;99.90;;;;;;5073567;28;20452;-58
2023/10/13 08:16:30;;;;;;;9.40;5.47;;;20.70;99.90;;;;;;5073994;28;20520;-58
2023/10/13 08:18:57;;;;;;;14.47;5.90;;;20.80;99.90;;;;;;5073900;28;20486;-57
2023/10/13 08:21:24;;;;;;;10.23;5.77;;;20.90;99.90;;;;;;5073808;28;20464;-57
2023/10/13 08:24:05;;;;;;;11.67;5.33;;;21.00;99.90;;;;;;5073516;28;20483;-57
2023/10/13 08:32:14;;;;;;;10.80;5.40;;;21.20;99.90;;;;;;5073641;28;20459;-58
2023/10/13 08:35:00;;;;;;;16.47;5.67;;;21.30;99.10;;;;;;5073250;28;20846;-58
2023/10/13 08:37:29;;;;;;;17.90;6.57;;;21.40;98.40;;;;;;5073312;28;20431;-58
2023/10/13 08:40:20;;;;;;;11.20;5.73;;;21.40;98.20;;;;;;5073495;28;20530;-58
2023/10/13 08:43:08;;;;;;;13.17;6.63;;;21.50;98.40;;;;;;5073098;28;20437;-58
2023/10/13 08:45:59;;;;;;;12.93;6.10;;;21.50;97.90;;;;;;5073505;28;20460;-58
2023/10/13 08:48:32;;;;;;;12.67;6.43;;;21.60;97.20;;;;;;5073465;28;20482;-58
2023/10/13 08:51:04;;;;;;;10.97;6.27;;;21.70;96.90;;;;;;5073208;28;20460;-58
2023/10/13 08:53:33;;;;;;;11.60;6.00;;;21.90;96.70;;;;;;5073181;28;20975;-58
2023/10/13 08:56:05;;;;;;;11.00;5.47;;;22.00;95.20;;;;;;5073311;28;20544;-58
2023/10/13 09:04:20;;;;;;;14.53;6.20;;;22.50;94.20;;;;;;5072955;28;20510;-58
2023/10/13 09:06:47;;;;;;;11.60;5.47;;;22.70;93.70;;;;;;5073071;28;20560;-58
2023/10/13 09:09:34;;;;;;;8.70;5.83;;;22.90;92.60;;;;;;5072994;28;20456;-58
2023/10/13 09:12:07;;;;;;;13.43;6.23;;;23.00;92.50;;;;;;5073001;28;20964;-58
2023/10/13 09:14:36;;;;;;;7.03;5.90;;;23.10;92.60;;;;;;5073155;28;20432;-58
2023/10/13 09:17:11;;;;;;;9.47;5.77;;;23.20;91.70;;;;;;5073122;28;20448;-58
2023/10/13 09:19:49;;;;;;;11.20;5.47;;;23.20;90.80;;;;;;5073145;28;20433;-57
2023/10/13 09:22:26;;;;;;;13.20;5.47;;;23.30;91.20;;;;;;5073157;28;20432;-57
2023/10/13 09:24:58;;;;;;;10.50;6.37;;;23.30;90.70;;;;;;5072821;28;20425;-58
2023/10/13 09:27:26;;;;;;;10.73;6.17;;;23.40;90.30;;;;;;5076814;28;20504;-58
2023/10/13 09:29:57;;;;;;;10.63;5.97;;;23.50;90.20;;;;;;5076998;28;20522;-57
2023/10/13 09:32:24;;;;;;;11.10;6.83;;;23.60;89.60;;;;;;5077240;28;20452;-58
2023/10/13 09:34:51;;;;;;;11.50;6.70;;;23.70;89.90;;;;;;5077026;28;20491;-58
2023/10/13 09:37:20;;;;;;;14.33;6.17;;;23.80;87.50;;;;;;5076644;28;20927;-58
2023/10/13 09:39:52;;;;;;;15.10;7.13;;;23.90;88.00;;;;;;5076798;28;20547;-57
2023/10/13 09:42:18;;;;;;;8.60;6.67;;;23.90;87.80;;;;;;5076626;28;20895;-58
2023/10/13 09:44:51;;;;;;;10.00;7.13;;;23.90;86.80;;;;;;5076843;28;20451;-58
2023/10/13 09:47:24;;;;;;;7.70;6.70;;;24.20;86.90;;;;;;5076697;28;20217;-58
2023/10/13 09:50:03;;;;;;;13.07;6.70;;;24.40;85.80;;;;;;5076664;28;20547;-58
2023/10/13 09:52:31;;;;;;;10.53;7.33;;;24.60;85.60;;;;;;5076673;28;20424;-58
2023/10/13 09:55:10;;;;;;;12.03;7.37;;;24.60;83.50;;;;;;5077027;28;20456;-58
2023/10/13 09:57:44;;;;;;;11.60;6.30;;;24.60;82.90;;;;;;5076306;28;20431;-58
2023/10/13 10:02:59;;;;;;;13.10;7.60;;;24.70;82.70;;;;;;5076252;28;20447;-58
2023/10/13 10:05:26;;;;;;;12.00;7.87;;;24.70;82.10;;;;;;5076309;28;20479;-58
2023/10/13 10:07:58;;;;;;;11.07;7.93;;;24.90;82.50;;;;;;5076308;28;20468;-58
2023/10/13 10:10:36;;;;;;;12.27;7.27;;;25.00;82.10;;;;;;5075851;28;20516;-58
2023/10/13 10:13:16;;;;;;;10.10;7.00;;;25.10;79.50;;;;;;5076257;28;20424;-58
2023/10/13 10:15:44;;;;;;;8.70;6.90;;;25.10;80.20;;;;;;5075885;28;20899;-58
2023/10/13 10:18:21;;;;;;;9.63;7.60;;;25.20;79.20;;;;;;5076310;28;20452;-58
2023/10/13 10:20:53;;;;;;;12.40;7.83;;;25.20;79.10;;;;;;5076183;28;20482;-58
2023/10/13 10:23:26;;;;;;;10.70;7.60;;;25.20;77.80;;;;;;5077353;28;20425;-58
2023/10/13 10:26:04;;;;;;;13.20;7.90;;;25.30;76.70;;;;;;5075761;28;20556;-58
2023/10/13 10:28:36;;;;;;;9.67;7.27;;;25.50;76.20;;;;;;5075746;28;20895;-58
2023/10/13 10:31:06;;;;;;;11.80;7.30;;;25.70;75.80;;;;;;5075963;28;20464;-58
2023/10/13 10:33:33;;;;;;;14.07;7.70;;;25.80;75.30;;;;;;5076137;28;20472;-58
2023/10/13 10:36:02;;;;;;;9.03;7.27;;;25.80;72.80;;;;;;5076016;28;20942;-58
2023/10/13 10:38:33;;;;;;;14.37;7.10;;;25.90;73.60;;;;;;5075669;28;20464;-58
2023/10/13 10:41:04;;;;;;;7.73;6.70;;;26.00;73.90;;;;;;5075678;28;20494;-58
2023/10/13 10:43:42;;;;;;;17.10;7.83;;;26.10;72.60;;;;;;5075826;28;20460;-58
2023/10/13 10:46:10;;;;;;;13.67;7.33;;;26.30;70.80;;;;;;5075635;28;20522;-58
2023/10/13 10:48:42;;;;;;;9.03;6.90;;;26.70;68.70;;;;;;5075552;28;20950;-58
2023/10/13 10:51:22;;;;;;;13.00;7.03;;;27.10;67.50;;;;;;5075535;28;20474;-58
2023/10/13 10:53:49;;;;;;;10.33;7.13;;;27.20;65.30;;;;;;5075586;28;20461;-58
2023/10/13 10:56:36;;;;;;;13.03;7.17;;;27.40;65.00;;;;;;5075543;28;20533;-58
2023/10/13 10:59:05;;;;;;;11.43;6.93;;;27.30;64.00;;;;;;5075437;28;20518;-58
2023/10/13 11:01:38;;;;;;;12.10;6.47;;;27.10;63.90;;;;;;5075282;28;20563;-58
2023/10/13 11:04:09;;;;;;;9.90;7.30;;;26.90;63.50;;;;;;5076007;28;20429;-58
2023/10/13 11:06:41;;;;;;;11.33;7.33;;;26.60;64.00;;;;;;5075092;28;20982;-58
2023/10/13 11:09:18;;;;;;;11.73;6.70;;;26.50;66.30;;;;;;5075246;28;20543;-58
2023/10/13 11:11:46;;;;;;;13.13;7.33;;;26.30;65.60;;;;;;5075027;28;20543;-58
2023/10/13 11:14:23;;;;;;;11.53;7.07;;;26.10;67.40;;;;;;5075091;28;20491;-57
2023/10/13 11:16:53;;;;;;;13.30;7.03;;;25.90;67.80;;;;;;5075074;28;20449;-58
2023/10/13 11:19:27;;;;;;;11.53;7.90;;;25.70;67.70;;;;;;5075041;28;20436;-58
2023/10/13 11:21:56;;;;;;;11.60;6.53;;;25.60;68.70;;;;;;5074725;28;20870;-58
2023/10/13 11:24:22;;;;;;;16.37;7.20;;;25.60;70.10;;;;;;5075162;28;20459;-58
2023/10/13 11:26:50;;;;;;;13.13;7.53;;;25.60;70.50;;;;;;5074720;28;20512;-58
2023/10/13 11:29:19;;;;;;;14.90;8.10;;;25.60;69.70;;;;;;5074737;28;20437;-58
2023/10/13 11:31:53;;;;;;;16.57;7.17;;;25.60;68.60;;;;;;5074744;28;20448;-58
2023/10/13 11:34:19;;;;;;;20.23;6.67;;;25.70;68.90;;;;;;5075558;28;20429;-58
2023/10/13 11:36:46;;;;;;;13.30;6.73;;;25.70;68.60;;;;;;5075397;28;20543;-58
2023/10/13 11:39:18;;;;;;;11.87;6.60;;;25.80;69.10;;;;;;5074559;28;20449;-58
2023/10/13 11:41:53;;;;;;;10.60;6.30;;;25.70;68.30;;;;;;5074124;28;21008;-58
2023/10/13 11:44:31;;;;;;;18.63;6.10;;;25.70;66.70;;;;;;5074142;28;20777;-59
2023/10/13 11:47:15;;;;;;;14.07;6.30;;;25.70;68.10;;;;;;5074096;28;20970;-58
2023/10/13 11:49:41;;;;;;;8.60;6.07;;;25.50;68.60;;;;;;5073385;28;21023;-58
2023/10/13 11:52:17;;;;;;;15.63;6.47;;;25.40;68.40;;;;;;5074345;28;20441;-58
2023/10/13 11:54:46;;;;;;;14.53;6.10;;;25.40;69.40;;;;;;5074845;28;20435;-58
2023/10/13 11:57:16;;;;;;;14.27;6.73;;;25.30;69.90;;;;;;5074225;28;20452;-58
2023/10/13 11:59:53;;;;;;;15.93;6.43;;;25.30;69.30;;;;;;5074116;28;20465;-58
2023/10/13 12:05:11;;;;;;;16.30;6.17;;;25.20;70.40;;;;;;5074116;28;20404;-58
2023/10/13 12:07:45;;;;;;;13.83;6.37;;;25.20;69.70;;;;;;5074004;28;20464;-58
2023/10/13 12:10:20;;;;;;;14.37;6.70;;;25.20;70.00;;;;;;5073559;28;20504;-58
2023/10/13 12:12:53;;;;;;;12.90;5.70;;;25.10;69.90;;;;;;5074060;28;20429;-58
2023/10/13 12:15:30;;;;;;;13.20;6.00;;;25.10;70.10;;;;;;5073923;28;20425;-58
2023/10/13 12:17:57;;;;;;;15.63;6.67;;;25.20;69.70;;;;;;5073854;28;20429;-58
2023/10/13 12:20:33;;;;;;;10.40;6.03;;;25.20;70.10;;;;;;5073723;28;20468;-58
2023/10/13 12:23:09;;;;;;;16.30;6.40;;;25.20;69.40;;;;;;5073850;28;20455;-58
2023/10/13 12:25:57;;;;;;;13.30;5.50;;;25.20;69.00;;;;;;5073769;28;20433;-58
2023/10/13 12:28:26;;;;;;;15.57;6.03;;;25.30;69.40;;;;;;5074148;28;20544;-58
2023/10/13 12:30:54;;;;;;;13.20;6.90;;;25.30;68.10;;;;;;5073554;28;20584;-58
2023/10/13 12:33:36;;;;;;;15.57;6.17;;;25.20;69.10;;;;;;5073586;28;20450;-58
2023/10/13 12:36:06;;;;;;;14.17;6.80;;;25.30;69.10;;;;;;5073614;28;20539;-58
2023/10/13 12:48:58;;;;;;;16.83;7.23;;;25.20;68.10;;;;;;5074600;28;20437;-58
2023/10/13 12:50:14;;;;;;;11.80;5.97;;;25.30;65.20;;;;;;5073923;28;20448;-58
2023/10/13 12:52:45;;;;;;;17.33;5.97;;;25.30;64.10;;;;;;5073886;28;20440;-58
2023/10/13 12:55:13;;;;;;;16.37;5.70;;;25.20;63.80;;;;;;5074360;28;20433;-57
2023/10/13 12:57:44;;;;;;;12.27;5.47;;;25.10;64.40;;;;;;5073792;28;20441;-57
2023/10/13 13:00:21;;;;;;;18.63;6.10;;;25.10;65.40;;;;;;5073729;28;20492;-58
2023/10/13 13:02:50;;;;;;;15.27;7.13;;;25.10;64.20;;;;;;5073613;28;20448;-57
2023/10/13 13:05:21;;;;;;;19.47;6.07;;;25.20;64.60;;;;;;5073610;28;20453;-58
2023/10/13 13:07:52;;;;;;;15.70;5.97;;;25.20;63.80;;;;;;5073483;28;20468;-58
2023/10/13 13:10:19;;;;;;;22.83;7.27;;;25.30;63.00;;;;;;5073347;28;20480;-58
2023/10/13 13:12:47;;;;;;;17.93;7.10;;;25.30;61.50;;;;;;5073387;28;20498;-58
2023/10/13 13:15:14;;;;;;;21.97;6.93;;;25.50;61.80;;;;;;5073213;28;20543;-58
2023/10/13 13:17:41;;;;;;;16.27;6.47;;;25.60;60.80;;;;;;5073424;28;20485;-58
2023/10/13 13:20:25;;;;;;;14.10;5.47;;;25.60;61.40;;;;;;5073296;28;21022;-57
2023/10/13 13:22:53;;;;;;;21.23;6.40;;;25.50;60.70;;;;;;5073495;28;20455;-57
2023/10/13 13:25:25;;;;;;;22.53;7.00;;;25.40;61.90;;;;;;5073304;28;20453;-58
2023/10/13 13:27:53;;;;;;;22.40;6.93;;;25.40;61.50;;;;;;5072915;28;20495;-58
2023/10/13 13:30:21;;;;;;;21.93;6.10;;;25.30;61.00;;;;;;5073191;28;20530;-58
2023/10/13 13:32:49;;;;;;;16.23;5.87;;;25.10;60.90;;;;;;5072828;28;20943;-58
2023/10/13 13:35:18;;;;;;;16.07;6.40;;;25.00;62.70;;;;;;5073323;28;20484;-58
2023/10/13 13:37:45;;;;;;;19.70;6.00;;;25.00;63.30;;;;;;5073074;28;20441;-58
2023/10/13 13:40:15;;;;;;;20.87;5.83;;;24.90;63.40;;;;;;5073005;28;20488;-58
2023/10/13 13:42:43;;;;;;;22.53;6.80;;;24.90;63.10;;;;;;5073074;28;20834;-58
2023/10/13 13:45:21;;;;;;;22.57;6.37;;;24.90;63.50;;;;;;5072661;28;21004;-57
2023/10/13 13:47:53;;;;;;;17.63;6.40;;;24.80;62.70;;;;;;5073020;28;20475;-57
2023/10/13 13:50:25;;;;;;;19.30;6.23;;;24.90;63.30;;;;;;5073061;28;20534;-57
2023/10/13 13:52:52;;;;;;;12.33;5.80;;;24.90;61.60;;;;;;5072999;28;20433;-57
2023/10/13 13:55:21;;;;;;;17.07;5.90;;;24.90;62.00;;;;;;5072668;28;20960;-58
2023/10/13 13:57:50;;;;;;;19.33;6.70;;;24.90;62.60;;;;;;5072871;28;20545;-57
2023/10/13 14:00:23;;;;;;;20.73;5.23;;;24.80;62.90;;;;;;5073287;28;20496;-57
2023/10/13 14:02:50;;;;;;;19.70;5.97;;;24.80;63.10;;;;;;5072762;28;20482;-57
2023/10/13 14:05:17;;;;;;;16.77;5.80;;;24.70;62.60;;;;;;5072653;28;20827;-58
2023/10/13 14:07:48;;;;;;;13.80;5.73;;;24.60;62.40;;;;;;5072540;28;20491;-58
2023/10/13 14:10:31;;;;;;;20.40;6.53;;;24.50;63.30;;;;;;5072313;28;20481;-57
2023/10/13 14:13:06;;;;;;;20.50;7.30;;;24.50;62.90;;;;;;5075292;28;20429;-58
2023/10/13 14:15:39;;;;;;;18.97;6.67;;;24.50;62.40;;;;;;5076202;28;20460;-57
2023/10/13 14:18:12;;;;;;;17.80;6.00;;;24.40;62.00;;;;;;5076142;28;20447;-58
2023/10/13 14:20:39;;;;;;;11.73;6.37;;;24.30;62.50;;;;;;5076209;28;20468;-57
2023/10/13 14:23:09;;;;;;;21.77;6.40;;;24.30;62.90;;;;;;5076043;28;20493;-57
2023/10/13 14:25:37;;;;;;;13.83;6.33;;;24.20;63.60;;;;;;5076013;28;20449;-57
2023/10/13 14:28:05;;;;;;;12.70;5.83;;;24.10;63.40;;;;;;5075883;28;20488;-57
2023/10/13 14:30:32;;;;;;;11.27;6.50;;;24.10;64.40;;;;;;5075861;28;20460;-57
2023/10/13 14:33:00;;;;;;;10.63;5.70;;;24.00;63.90;;;;;;5076667;28;20459;-57
2023/10/13 14:35:27;;;;;;;13.10;6.50;;;24.00;64.10;;;;;;5076367;28;20478;-57
2023/10/13 14:37:54;;;;;;;15.80;7.10;;;23.90;64.20;;;;;;5076047;28;20432;-57
2023/10/13 14:40:22;;;;;;;9.80;6.00;;;23.90;64.90;;;;;;5075424;28;20982;-57
2023/10/13 14:42:49;;;;;;;10.67;5.83;;;23.90;65.00;;;;;;5075650;28;20441;-57
2023/10/13 14:45:16;;;;;;;24.67;6.90;;;23.90;64.80;;;;;;5075629;28;20449;-57
2023/10/13 14:47:43;;;;;;;17.87;6.90;;;23.90;64.60;;;;;;5075720;28;20885;-57
2023/10/13 14:50:19;;;;;;;14.63;6.93;;;23.90;64.50;;;;;;5075541;28;20475;-57
2023/10/13 14:52:46;;;;;;;11.80;6.00;;;23.80;64.90;;;;;;5075321;28;20428;-57
2023/10/13 14:55:19;;;;;;;13.47;6.40;;;23.70;64.60;;;;;;5075467;28;20448;-57
2023/10/13 14:57:49;;;;;;;17.17;7.10;;;23.80;64.60;;;;;;5075526;28;20425;-57
2023/10/13 15:00:24;;;;;;;11.30;6.23;;;23.80;65.20;;;;;;5075549;28;20461;-57
2023/10/13 15:02:51;;;;;;;13.63;6.77;;;23.70;64.30;;;;;;5075426;28;20428;-57
2023/10/13 15:05:19;;;;;;;11.63;5.70;;;23.70;65.20;;;;;;5075131;28;20445;-58